sensor_id;sensor_type;location;lat;lon;timestamp;P1;durP1;ratioP1;P2;durP2;ratioP2
13687;SDS011;6916;51.504;7.416;2023-07-29T00:02:35;3.90;;;3.17;;
13687;SDS011;6916;51.504;7.416;2023-07-29T00:12:37;2.90;;;2.63;;
13687;SDS011;6916;51.504;7.416;2023-07-29T00:22:40;3.60;;;2.50;;
13687;SDS011;6916;51.504;7.416;2023-07-29T00:32:43;2.08;;;1.98;;
13687;SDS011;6916;51.504;7.416;2023-07-29T00:42:47;2.85;;;2.40;;
13687;SDS011;6916;51.504;7.416;2023-07-29T00:52:50;2.85;;;2.60;;
13687;SDS011;6916;51.504;7.416;2023-07-29T01:02:53;2.35;;;2.20;;
13687;SDS011;6916;51.504;7.416;2023-07-29T01:13:05;2.60;;;2.40;;
13687;SDS011;6916;51.504;7.416;2023-07-29T01:23:12;3.28;;;2.60;;
13687;SDS011;6916;51.504;7.416;2023-07-29T01:33:20;3.45;;;2.50;;
13687;SDS011;6916;51.504;7.416;2023-07-29T01:43:25;2.10;;;1.50;;
13687;SDS011;6916;51.504;7.416;2023-07-29T01:53:28;1.33;;;1.23;;
13687;SDS011;6916;51.504;7.416;2023-07-29T02:03:31;2.53;;;1.35;;
13687;SDS011;6916;51.504;7.416;2023-07-29T02:13:34;1.27;;;1.17;;
13687;SDS011;6916;51.504;7.416;2023-07-29T02:23:36;3.42;;;1.10;;
13687;SDS011;6916;51.504;7.416;2023-07-29T02:33:39;2.30;;;1.45;;
13687;SDS011;6916;51.504;7.416;2023-07-29T02:43:42;1.88;;;1.13;;
13687;SDS011;6916;51.504;7.416;2023-07-29T02:53:45;5.20;;;1.20;;
13687;SDS011;6916;51.504;7.416;2023-07-29T03:03:48;2.33;;;0.90;;
13687;SDS011;6916;51.504;7.416;2023-07-29T03:13:50;1.27;;;1.17;;
13687;SDS011;6916;51.504;7.416;2023-07-29T03:23:53;1.58;;;1.48;;
13687;SDS011;6916;51.504;7.416;2023-07-29T03:33:57;3.17;;;2.13;;
13687;SDS011;6916;51.504;7.416;2023-07-29T03:44:00;2.58;;;1.90;;
13687;SDS011;6916;51.504;7.416;2023-07-29T03:54:03;2.30;;;2.10;;
13687;SDS011;6916;51.504;7.416;2023-07-29T04:04:05;2.17;;;2.08;;
13687;SDS011;6916;51.504;7.416;2023-07-29T04:14:08;3.83;;;2.10;;
13687;SDS011;6916;51.504;7.416;2023-07-29T04:24:11;3.45;;;2.22;;
13687;SDS011;6916;51.504;7.416;2023-07-29T04:34:14;3.72;;;2.42;;
13687;SDS011;6916;51.504;7.416;2023-07-29T04:44:16;2.78;;;2.58;;
13687;SDS011;6916;51.504;7.416;2023-07-29T04:54:19;6.35;;;3.78;;
13687;SDS011;6916;51.504;7.416;2023-07-29T05:04:23;3.30;;;3.10;;
13687;SDS011;6916;51.504;7.416;2023-07-29T05:14:26;5.47;;;4.97;;
13687;SDS011;6916;51.504;7.416;2023-07-29T05:24:29;7.85;;;5.32;;
13687;SDS011;6916;51.504;7.416;2023-07-29T05:34:32;5.22;;;4.72;;
13687;SDS011;6916;51.504;7.416;2023-07-29T05:44:34;6.38;;;5.88;;
13687;SDS011;6916;51.504;7.416;2023-07-29T05:54:37;10.75;;;6.65;;
13687;SDS011;6916;51.504;7.416;2023-07-29T06:04:40;7.78;;;7.05;;
13687;SDS011;6916;51.504;7.416;2023-07-29T06:14:43;9.40;;;8.60;;
13687;SDS011;6916;51.504;7.416;2023-07-29T06:24:45;10.27;;;9.48;;
13687;SDS011;6916;51.504;7.416;2023-07-29T06:34:48;10.32;;;9.43;;
13687;SDS011;6916;51.504;7.416;2023-07-29T06:44:50;5.13;;;4.72;;
13687;SDS011;6916;51.504;7.416;2023-07-29T06:54:53;2.83;;;2.60;;
13687;SDS011;6916;51.504;7.416;2023-07-29T07:04:55;3.80;;;3.42;;
13687;SDS011;6916;51.504;7.416;2023-07-29T07:14:59;2.92;;;2.40;;
13687;SDS011;6916;51.504;7.416;2023-07-29T07:25:02;2.40;;;1.60;;
13687;SDS011;6916;51.504;7.416;2023-07-29T07:35:08;1.80;;;1.23;;
13687;SDS011;6916;51.504;7.416;2023-07-29T07:45:11;1.27;;;1.05;;
13687;SDS011;6916;51.504;7.416;2023-07-29T07:55:14;3.13;;;1.17;;
13687;SDS011;6916;51.504;7.416;2023-07-29T08:05:18;2.10;;;1.10;;
13687;SDS011;6916;51.504;7.416;2023-07-29T08:15:20;2.10;;;1.77;;
13687;SDS011;6916;51.504;7.416;2023-07-29T08:25:23;2.00;;;1.25;;
13687;SDS011;6916;51.504;7.416;2023-07-29T08:35:27;2.38;;;2.00;;
13687;SDS011;6916;51.504;7.416;2023-07-29T08:45:30;1.58;;;1.10;;
13687;SDS011;6916;51.504;7.416;2023-07-29T08:55:36;4.63;;;1.70;;
13687;SDS011;6916;51.504;7.416;2023-07-29T09:05:39;1.40;;;1.30;;
13687;SDS011;6916;51.504;7.416;2023-07-29T09:15:41;1.80;;;1.08;;
13687;SDS011;6916;51.504;7.416;2023-07-29T09:25:45;5.22;;;0.98;;
13687;SDS011;6916;51.504;7.416;2023-07-29T09:35:49;0.93;;;0.80;;
13687;SDS011;6916;51.504;7.416;2023-07-29T09:45:52;1.02;;;1.02;;
13687;SDS011;6916;51.504;7.416;2023-07-29T09:55:55;0.73;;;0.50;;
13687;SDS011;6916;51.504;7.416;2023-07-29T10:05:59;1.33;;;0.50;;
13687;SDS011;6916;51.504;7.416;2023-07-29T10:16:03;0.50;;;0.50;;
13687;SDS011;6916;51.504;7.416;2023-07-29T10:26:10;1.20;;;0.80;;
13687;SDS011;6916;51.504;7.416;2023-07-29T10:36:14;1.30;;;0.88;;
13687;SDS011;6916;51.504;7.416;2023-07-29T10:56:33;3.40;;;0.88;;
13687;SDS011;6916;51.504;7.416;2023-07-29T11:17:07;2.50;;;0.60;;
13687;SDS011;6916;51.504;7.416;2023-07-29T11:27:12;1.48;;;0.63;;
13687;SDS011;6916;51.504;7.416;2023-07-29T11:37:15;0.82;;;0.60;;
13687;SDS011;6916;51.504;7.416;2023-07-29T11:47:18;1.05;;;0.95;;
13687;SDS011;6916;51.504;7.416;2023-07-29T11:57:21;1.20;;;0.60;;
13687;SDS011;6916;51.504;7.416;2023-07-29T12:07:24;1.00;;;0.90;;
13687;SDS011;6916;51.504;7.416;2023-07-29T12:17:27;1.80;;;0.50;;
13687;SDS011;6916;51.504;7.416;2023-07-29T12:27:30;4.20;;;3.28;;
13687;SDS011;6916;51.504;7.416;2023-07-29T12:37:34;1.48;;;1.23;;
13687;SDS011;6916;51.504;7.416;2023-07-29T12:47:36;1.00;;;0.73;;
13687;SDS011;6916;51.504;7.416;2023-07-29T12:57:41;1.63;;;0.50;;
13687;SDS011;6916;51.504;7.416;2023-07-29T13:07:45;0.60;;;0.55;;
13687;SDS011;6916;51.504;7.416;2023-07-29T13:17:48;1.73;;;0.77;;
13687;SDS011;6916;51.504;7.416;2023-07-29T13:27:50;1.40;;;0.60;;
13687;SDS011;6916;51.504;7.416;2023-07-29T13:37:53;3.67;;;1.27;;
13687;SDS011;6916;51.504;7.416;2023-07-29T13:47:56;1.10;;;0.90;;
13687;SDS011;6916;51.504;7.416;2023-07-29T13:57:59;1.88;;;0.88;;
13687;SDS011;6916;51.504;7.416;2023-07-29T14:08:02;1.00;;;0.57;;
13687;SDS011;6916;51.504;7.416;2023-07-29T14:18:05;1.20;;;0.80;;
13687;SDS011;6916;51.504;7.416;2023-07-29T14:28:08;2.28;;;0.98;;
13687;SDS011;6916;51.504;7.416;2023-07-29T14:38:11;1.38;;;1.10;;
13687;SDS011;6916;51.504;7.416;2023-07-29T14:48:13;1.42;;;1.08;;
13687;SDS011;6916;51.504;7.416;2023-07-29T14:58:16;3.58;;;1.13;;
13687;SDS011;6916;51.504;7.416;2023-07-29T15:08:19;1.95;;;0.75;;
13687;SDS011;6916;51.504;7.416;2023-07-29T15:18:22;1.08;;;0.60;;
13687;SDS011;6916;51.504;7.416;2023-07-29T15:28:25;1.80;;;0.47;;
13687;SDS011;6916;51.504;7.416;2023-07-29T15:38:28;0.60;;;0.60;;
13687;SDS011;6916;51.504;7.416;2023-07-29T15:48:30;1.55;;;0.63;;
13687;SDS011;6916;51.504;7.416;2023-07-29T15:58:33;0.35;;;0.35;;
13687;SDS011;6916;51.504;7.416;2023-07-29T16:08:36;0.90;;;0.43;;
13687;SDS011;6916;51.504;7.416;2023-07-29T16:18:40;3.30;;;0.70;;
13687;SDS011;6916;51.504;7.416;2023-07-29T16:28:42;1.02;;;0.68;;
13687;SDS011;6916;51.504;7.416;2023-07-29T16:38:45;2.40;;;0.70;;
13687;SDS011;6916;51.504;7.416;2023-07-29T16:48:49;1.05;;;1.00;;
13687;SDS011;6916;51.504;7.416;2023-07-29T16:58:51;1.17;;;0.95;;
13687;SDS011;6916;51.504;7.416;2023-07-29T17:08:54;18.45;;;12.05;;
13687;SDS011;6916;51.504;7.416;2023-07-29T17:18:56;2.25;;;1.30;;
13687;SDS011;6916;51.504;7.416;2023-07-29T17:28:59;1.20;;;0.95;;
13687;SDS011;6916;51.504;7.416;2023-07-29T17:39:02;2.28;;;1.77;;
13687;SDS011;6916;51.504;7.416;2023-07-29T17:49:04;1.23;;;1.00;;
13687;SDS011;6916;51.504;7.416;2023-07-29T17:59:07;1.88;;;1.50;;
13687;SDS011;6916;51.504;7.416;2023-07-29T18:09:10;2.33;;;1.55;;
13687;SDS011;6916;51.504;7.416;2023-07-29T18:19:12;5.25;;;2.00;;
13687;SDS011;6916;51.504;7.416;2023-07-29T18:29:15;2.42;;;1.52;;
13687;SDS011;6916;51.504;7.416;2023-07-29T18:39:18;1.45;;;1.15;;
13687;SDS011;6916;51.504;7.416;2023-07-29T18:49:20;3.45;;;1.60;;
13687;SDS011;6916;51.504;7.416;2023-07-29T18:59:25;3.58;;;1.50;;
13687;SDS011;6916;51.504;7.416;2023-07-29T19:09:28;0.80;;;0.55;;
13687;SDS011;6916;51.504;7.416;2023-07-29T19:19:30;2.45;;;1.40;;
13687;SDS011;6916;51.504;7.416;2023-07-29T19:29:33;0.98;;;0.82;;
13687;SDS011;6916;51.504;7.416;2023-07-29T19:39:35;1.45;;;1.23;;
13687;SDS011;6916;51.504;7.416;2023-07-29T19:49:38;3.13;;;0.82;;
13687;SDS011;6916;51.504;7.416;2023-07-29T19:59:41;1.42;;;0.65;;
13687;SDS011;6916;51.504;7.416;2023-07-29T20:09:50;0.95;;;0.70;;
13687;SDS011;6916;51.504;7.416;2023-07-29T20:19:53;0.75;;;0.70;;
13687;SDS011;6916;51.504;7.416;2023-07-29T20:29:56;1.73;;;1.33;;
13687;SDS011;6916;51.504;7.416;2023-07-29T20:39:58;5.50;;;1.83;;
13687;SDS011;6916;51.504;7.416;2023-07-29T20:50:02;1.38;;;1.27;;
13687;SDS011;6916;51.504;7.416;2023-07-29T21:00:05;2.95;;;1.52;;
13687;SDS011;6916;51.504;7.416;2023-07-29T21:10:12;2.50;;;1.65;;
13687;SDS011;6916;51.504;7.416;2023-07-29T21:20:15;2.13;;;1.77;;
13687;SDS011;6916;51.504;7.416;2023-07-29T21:30:18;5.40;;;2.00;;
13687;SDS011;6916;51.504;7.416;2023-07-29T21:40:21;1.33;;;1.23;;
13687;SDS011;6916;51.504;7.416;2023-07-29T21:50:24;2.20;;;1.80;;
13687;SDS011;6916;51.504;7.416;2023-07-29T22:00:26;2.53;;;1.80;;
13687;SDS011;6916;51.504;7.416;2023-07-29T22:10:29;4.32;;;2.45;;
13687;SDS011;6916;51.504;7.416;2023-07-29T22:20:31;3.75;;;2.38;;
13687;SDS011;6916;51.504;7.416;2023-07-29T22:30:35;2.92;;;2.50;;
13687;SDS011;6916;51.504;7.416;2023-07-29T22:40:39;6.53;;;2.42;;
13687;SDS011;6916;51.504;7.416;2023-07-29T22:50:41;2.55;;;2.00;;
13687;SDS011;6916;51.504;7.416;2023-07-29T23:00:51;2.55;;;2.20;;
13687;SDS011;6916;51.504;7.416;2023-07-29T23:10:59;3.92;;;2.67;;
13687;SDS011;6916;51.504;7.416;2023-07-29T23:21:02;3.40;;;2.33;;
13687;SDS011;6916;51.504;7.416;2023-07-29T23:31:05;4.55;;;2.22;;
13687;SDS011;6916;51.504;7.416;2023-07-29T23:41:10;3.50;;;2.03;;
13687;SDS011;6916;51.504;7.416;2023-07-29T23:51:12;4.10;;;2.35;;
